MDT,Max TemperatureF,Mean TemperatureF,Min TemperatureF,Max Dew PointF,MeanDew PointF,Min DewpointF,Max Humidity, Mean Humidity, Min Humidity, Max Sea Level PressureIn, Mean Sea Level PressureIn, Min Sea Level PressureIn, Max VisibilityMiles, Mean VisibilityMiles, Min VisibilityMiles, Max Wind SpeedMPH, Mean Wind SpeedMPH, Max Gust SpeedMPH,PrecipitationIn, CloudCover, Events, WindDirDegrees
2013-8-1,66,57,48,52,45,37,82,66,51,30.51,30.44,30.37,10,10,2,9,3,,0.09,4,,350
2013-8-2,78,64,51,52,47,39,88,59,27,30.40,30.35,30.28,10,10,9,15,4,16,0.06,2,,307
2013-8-3,77,64,50,52,46,43,77,61,34,30.48,30.41,30.35,10,10,9,15,5,23,0.00,2,Thunderstorm,335
2013-8-4,77,60,42,48,44,37,87,62,32,30.51,30.45,30.38,10,10,7,25,4,33,0.00,1,Thunderstorm,333
2013-8-5,75,62,48,48,46,43,82,61,36,30.45,30.38,30.31,10,10,10,20,5,26,0.00,2,Thunderstorm,338
2013-8-6,73,60,48,50,46,37,82,65,27,30.40,30.35,30.28,10,10,8,20,6,23,0.03,2,Thunderstorm,9
2013-8-7,62,56,51,48,46,43,88,71,52,30.37,30.32,30.28,10,10,7,14,4,17,0.12,4,,34
2013-8-8,71,60,48,46,43,34,87,66,25,30.41,30.32,30.24,10,10,5,15,4,21,0.22,3,,17
2013-8-9,71,58,44,45,42,36,87,59,27,30.46,30.39,30.33,10,10,10,17,5,23,0.05,2,Thunderstorm,354
2013-8-10,73,58,42,45,40,36,82,60,25,30.52,30.48,30.40,10,10,9,26,6,34,0.10,2,Thunderstorm,333
2013-8-11,73,58,42,45,40,34,82,57,23,30.52,30.44,30.32,10,10,10,12,3,,0.00,1,Thunderstorm,304
2013-8-12,71,58,44,46,40,36,81,56,28,30.46,30.41,30.36,10,10,8,21,4,28,0.03,2,Thunderstorm,337
2013-8-13,75,58,41,45,38,32,81,55,22,30.50,30.43,30.36,10,10,10,12,3,20,0.01,1,,331
2013-8-14,75,56,37,43,35,30,81,49,19,30.49,30.42,30.35,10,10,10,18,3,26,0.00,1,,348
2013-8-15,78,58,37,37,33,28,81,44,16,30.50,30.43,30.37,10,10,10,17,3,24,0.00,0,,321
2013-8-16,80,58,37,37,33,27,76,43,14,30.53,30.44,30.36,10,10,10,9,1,,0.00,0,,316
2013-8-17,82,60,39,43,35,28,76,42,14,30.51,30.42,30.32,10,10,10,17,2,23,0.00,0,,283
2013-8-18,78,61,44,48,42,36,77,56,24,30.47,30.44,30.37,10,10,10,22,3,30,0.00,1,Thunderstorm,352
2013-8-19,82,63,44,46,42,34,87,54,17,30.50,30.42,30.29,10,10,5,17,3,23,0.00,1,Thunderstorm,295
2013-8-20,82,64,46,45,42,32,76,50,17,30.44,30.38,30.29,10,10,10,21,4,28,0.01,2,,266
2013-8-21,82,63,44,48,43,37,82,56,21,30.45,30.41,30.32,10,10,10,16,4,23,0.00,2,Thunderstorm,18
2013-8-22,80,64,48,52,45,39,82,57,23,30.49,30.41,30.31,10,10,5,25,3,30,0.00,2,Thunderstorm,3
2013-8-23,73,60,48,46,44,39,82,55,29,30.40,30.33,30.22,10,10,10,16,4,22,0.00,1,Thunderstorm,31
2013-8-24,71,60,48,48,44,41,82,61,35,30.41,30.36,30.32,10,10,6,12,5,22,0.00,4,,351
2013-8-25,71,61,51,54,48,45,77,62,40,30.48,30.43,30.37,10,10,10,12,4,18,0.02,6,,14
2013-8-26,78,66,55,54,50,46,88,65,32,30.50,30.45,30.37,10,10,9,14,5,,0.19,5,Thunderstorm,6
2013-8-27,80,62,44,50,46,41,87,61,26,30.48,30.40,30.28,10,10,0,15,2,,0.08,1,Thunderstorm,292
2013-8-28,82,64,46,52,45,37,87,55,21,30.44,30.39,30.31,10,10,10,16,3,22,0.00,1,,259
2013-8-29,84,65,46,46,43,30,82,50,15,30.51,30.45,30.37,10,10,4,17,3,24,0.00,1,,288
2013-8-30,80,68,55,48,45,37,72,48,21,30.51,30.45,30.35,10,10,10,14,6,,0.00,2,,22
2013-8-31,80,64,48,52,45,39,77,56,26,30.43,30.38,30.31,10,10,10,18,3,23,0.00,2,Thunderstorm,318